Time;durP1;ratioP1;P1;durP2;ratioP2;P2;SDS_P1;SDS_P2;PMS_P1;PMS_P2;Temp;Humidity;BMP_temperature;BMP_pressure;BME280_temperature;BME280_humidity;BME280_pressure;Samples;Min_cycle;Max_cycle;Signal;HPM_P1;HPM_P2
2022/03/31 00:00:19;;;;;;;12.35;7.88;;;9.40;99.90;;;;;;5033444;28;20170;-46
2022/03/31 00:02:45;;;;;;;14.60;8.60;;;9.40;99.90;;;;;;5032812;28;20171;-46
2022/03/31 00:05:11;;;;;;;15.25;8.68;;;9.50;99.90;;;;;;5032761;28;20173;-46
2022/03/31 00:07:51;;;;;;;11.80;8.70;;;9.40;99.90;;;;;;5033036;28;20224;-46
2022/03/31 00:10:21;;;;;;;13.63;8.80;;;9.40;99.90;;;;;;5032489;28;20166;-46
2022/03/31 00:12:47;;;;;;;11.27;8.27;;;9.40;99.90;;;;;;5032874;28;20171;-46
2022/03/31 00:15:12;;;;;;;11.40;8.60;;;9.40;99.90;;;;;;5031960;28;20171;-46
2022/03/31 00:17:38;;;;;;;16.63;8.43;;;9.40;99.90;;;;;;5032485;28;20666;-46
2022/03/31 00:20:04;;;;;;;12.75;9.10;;;9.40;99.90;;;;;;5032630;28;20210;-46
2022/03/31 00:22:29;;;;;;;12.85;9.20;;;9.30;99.90;;;;;;5033506;28;20210;-46
2022/03/31 00:24:55;;;;;;;14.25;8.52;;;9.20;99.90;;;;;;5032463;28;20191;-47
2022/03/31 00:27:21;;;;;;;14.43;9.57;;;9.20;99.90;;;;;;5032770;28;20167;-47
2022/03/31 00:29:47;;;;;;;12.95;8.90;;;9.20;99.90;;;;;;5032640;28;20219;-46
2022/03/31 00:32:13;;;;;;;15.48;10.07;;;9.20;99.90;;;;;;5032316;28;20194;-46
2022/03/31 00:34:39;;;;;;;12.70;10.15;;;9.20;99.90;;;;;;5032591;28;20257;-46
2022/03/31 00:37:04;;;;;;;13.85;9.93;;;9.30;99.90;;;;;;5032193;28;20243;-46
2022/03/31 00:39:31;;;;;;;17.15;9.80;;;9.30;99.90;;;;;;5032480;28;20171;-47
2022/03/31 00:41:59;;;;;;;14.02;9.75;;;9.30;99.90;;;;;;5032522;28;20171;-46
2022/03/31 00:44:25;;;;;;;17.20;10.18;;;9.30;99.90;;;;;;5032181;28;20705;-46
2022/03/31 00:46:52;;;;;;;15.60;10.23;;;9.30;99.90;;;;;;5032338;28;20234;-47
2022/03/31 00:49:22;;;;;;;17.48;9.82;;;9.20;99.90;;;;;;5032743;28;20179;-47
2022/03/31 00:51:50;;;;;;;16.50;10.18;;;9.20;99.90;;;;;;5032658;28;20167;-46
2022/03/31 00:54:17;;;;;;;14.98;10.32;;;9.20;99.90;;;;;;5032414;28;20171;-46
2022/03/31 00:56:43;;;;;;;18.10;11.57;;;9.00;99.90;;;;;;5032018;28;20242;-46
2022/03/31 00:59:11;;;;;;;17.52;10.77;;;9.00;99.90;;;;;;5032026;28;20247;-46
2022/03/31 01:01:38;;;;;;;16.00;11.35;;;9.10;99.90;;;;;;5031974;28;20686;-46
2022/03/31 01:04:06;;;;;;;15.48;11.57;;;9.10;99.90;;;;;;5032201;28;20175;-46
2022/03/31 01:06:31;;;;;;;14.55;11.75;;;9.20;99.90;;;;;;5032027;28;20576;-45
2022/03/31 01:08:57;;;;;;;13.63;11.38;;;9.10;99.90;;;;;;5031981;28;20638;-45
2022/03/31 01:11:23;;;;;;;13.48;11.40;;;9.10;99.90;;;;;;5031795;28;20643;-46
2022/03/31 01:13:49;;;;;;;16.75;11.63;;;9.10;99.90;;;;;;5032088;28;20175;-45
2022/03/31 01:16:15;;;;;;;20.75;12.35;;;9.10;99.90;;;;;;5031821;28;20205;-45
2022/03/31 01:18:40;;;;;;;18.90;12.95;;;9.10;99.90;;;;;;5031788;28;20358;-46
2022/03/31 01:21:06;;;;;;;19.27;11.88;;;9.20;99.90;;;;;;5031846;28;20168;-45
2022/03/31 01:23:31;;;;;;;15.93;10.93;;;9.00;99.90;;;;;;5031843;28;20225;-46
2022/03/31 01:25:57;;;;;;;15.50;11.65;;;9.00;99.90;;;;;;5032092;28;20168;-45
2022/03/31 01:28:22;;;;;;;20.30;10.70;;;9.00;99.90;;;;;;5035804;28;20197;-45
2022/03/31 01:30:48;;;;;;;19.60;11.52;;;8.90;99.90;;;;;;5036000;28;20168;-46
2022/03/31 01:33:14;;;;;;;16.02;10.32;;;9.00;99.90;;;;;;5035652;28;20526;-46
2022/03/31 01:35:40;;;;;;;18.48;11.63;;;8.90;99.90;;;;;;5035796;28;20206;-46
2022/03/31 01:38:06;;;;;;;14.48;11.30;;;8.90;99.90;;;;;;5035409;28;20679;-46
2022/03/31 01:40:34;;;;;;;15.93;12.45;;;8.90;99.90;;;;;;5035523;28;20374;-46
2022/03/31 01:42:59;;;;;;;16.30;11.98;;;9.00;99.90;;;;;;5035447;28;20542;-46
2022/03/31 01:45:25;;;;;;;14.85;11.13;;;9.10;99.90;;;;;;5035433;28;20164;-45
2022/03/31 01:47:51;;;;;;;20.35;12.20;;;9.00;99.90;;;;;;5035573;28;20226;-46
2022/03/31 01:50:16;;;;;;;14.32;10.88;;;9.10;99.90;;;;;;5035388;28;20168;-46
2022/03/31 01:52:42;;;;;;;14.80;10.73;;;9.10;99.90;;;;;;5035322;28;20167;-46
2022/03/31 01:55:08;;;;;;;19.73;12.25;;;9.00;99.90;;;;;;5035228;28;20562;-46
2022/03/31 01:57:34;;;;;;;18.85;11.30;;;9.00;99.90;;;;;;5035175;28;20265;-46
2022/03/31 02:00:02;;;;;;;16.17;12.68;;;9.00;99.90;;;;;;5035235;28;20164;-46
2022/03/31 02:02:30;;;;;;;16.35;11.65;;;9.10;99.90;;;;;;5035754;28;20179;-46
2022/03/31 02:04:55;;;;;;;22.80;11.50;;;9.10;99.90;;;;;;5036010;28;20182;-46
2022/03/31 02:07:21;;;;;;;19.35;11.70;;;9.00;99.90;;;;;;5035319;28;20164;-46
2022/03/31 02:09:46;;;;;;;18.83;11.52;;;9.00;99.90;;;;;;5035188;28;20168;-46
2022/03/31 02:12:12;;;;;;;19.23;12.27;;;9.00;99.90;;;;;;5035042;28;20674;-46
2022/03/31 02:14:37;;;;;;;15.50;12.40;;;9.00;99.90;;;;;;5035169;28;20171;-46
2022/03/31 02:17:11;;;;;;;14.98;11.75;;;8.90;99.90;;;;;;5034817;28;20256;-46
2022/03/31 02:19:37;;;;;;;20.52;12.48;;;8.90;99.90;;;;;;5034728;28;20168;-46
2022/03/31 02:22:04;;;;;;;19.88;12.68;;;8.80;99.90;;;;;;5035056;28;20258;-46
2022/03/31 02:24:30;;;;;;;19.13;13.25;;;8.80;99.90;;;;;;5034789;28;20164;-46
2022/03/31 02:26:56;;;;;;;18.58;13.20;;;8.80;99.90;;;;;;5034596;28;20190;-46
2022/03/31 02:29:21;;;;;;;19.63;13.43;;;8.90;99.90;;;;;;5035016;28;20171;-46
2022/03/31 02:31:47;;;;;;;21.98;13.73;;;8.80;99.90;;;;;;5034564;28;20261;-46
2022/03/31 02:34:14;;;;;;;17.40;13.15;;;8.80;99.90;;;;;;5034525;28;20167;-46
2022/03/31 02:36:42;;;;;;;24.50;14.43;;;8.80;99.90;;;;;;5034671;28;20172;-46
2022/03/31 02:39:09;;;;;;;23.85;13.45;;;8.80;99.90;;;;;;5033782;28;20531;-46
2022/03/31 02:41:35;;;;;;;20.83;13.57;;;8.70;99.90;;;;;;5034422;28;20175;-47
2022/03/31 02:44:05;;;;;;;20.77;12.98;;;8.80;99.90;;;;;;5034629;28;20179;-46
2022/03/31 02:46:31;;;;;;;19.08;13.32;;;8.70;99.90;;;;;;5034114;28;20215;-45
2022/03/31 02:48:57;;;;;;;19.13;13.52;;;8.70;99.90;;;;;;5034553;28;20167;-46
2022/03/31 02:51:23;;;;;;;20.85;14.32;;;8.70;99.90;;;;;;5034143;28;20631;-46
2022/03/31 02:56:34;;;;;;;26.70;14.27;;;8.70;99.90;;;;;;5034287;28;20545;-45
2022/03/31 02:59:00;;;;;;;20.40;14.48;;;8.70;99.90;;;;;;5034132;28;20175;-46
2022/03/31 03:01:27;;;;;;;19.23;13.15;;;8.70;99.90;;;;;;5034004;28;20167;-45
2022/03/31 03:03:53;;;;;;;19.52;13.55;;;8.70;99.90;;;;;;5034014;28;20239;-46
2022/03/31 03:06:19;;;;;;;23.58;14.48;;;8.70;99.90;;;;;;5034279;28;20172;-46
2022/03/31 03:08:45;;;;;;;20.48;14.00;;;8.70;99.90;;;;;;5033874;28;20596;-45
2022/03/31 03:11:11;;;;;;;21.00;14.85;;;8.80;99.90;;;;;;5033899;28;20210;-46
2022/03/31 03:13:36;;;;;;;21.67;14.55;;;8.80;99.90;;;;;;5033851;28;20171;-45
2022/03/31 03:16:08;;;;;;;24.60;15.10;;;8.60;99.90;;;;;;5034018;28;20172;-45
2022/03/31 03:18:34;;;;;;;20.52;13.73;;;8.70;99.90;;;;;;5033576;28;20206;-46
2022/03/31 03:21:01;;;;;;;19.88;14.15;;;8.60;99.90;;;;;;5033692;28;20346;-46
2022/03/31 03:23:26;;;;;;;19.85;13.88;;;8.50;99.90;;;;;;5033830;28;20175;-45
2022/03/31 03:25:52;;;;;;;20.58;14.63;;;8.50;99.90;;;;;;5033659;28;20218;-46
2022/03/31 03:28:17;;;;;;;22.40;14.18;;;8.50;99.90;;;;;;5033793;28;20171;-46
2022/03/31 03:30:43;;;;;;;26.02;14.38;;;8.50;99.90;;;;;;5033438;28;20246;-46
2022/03/31 03:33:08;;;;;;;24.63;15.05;;;8.40;99.90;;;;;;5033355;28;20646;-46
2022/03/31 03:35:34;;;;;;;21.92;14.85;;;8.40;99.90;;;;;;5033426;28;20175;-46
2022/03/31 03:38:00;;;;;;;22.13;15.50;;;8.40;99.90;;;;;;5033315;28;20210;-46
2022/03/31 03:40:26;;;;;;;24.67;14.77;;;8.30;99.90;;;;;;5033191;28;20210;-46
2022/03/31 03:42:53;;;;;;;20.38;15.50;;;8.30;99.90;;;;;;5033742;28;20229;-46
2022/03/31 03:45:19;;;;;;;27.85;16.40;;;8.30;99.90;;;;;;5033750;28;20179;-46
2022/03/31 03:47:45;;;;;;;20.33;15.13;;;8.40;99.90;;;;;;5031716;28;20219;-46
2022/03/31 03:50:11;;;;;;;24.25;16.20;;;8.30;99.90;;;;;;5032173;28;20582;-46
2022/03/31 03:52:37;;;;;;;24.00;15.68;;;8.30;99.90;;;;;;5033080;28;20654;-46
2022/03/31 03:55:03;;;;;;;21.88;15.32;;;8.20;99.90;;;;;;5033012;28;20179;-46
2022/03/31 03:57:30;;;;;;;26.27;15.52;;;8.30;99.90;;;;;;5032818;28;20678;-46
2022/03/31 03:59:56;;;;;;;22.17;15.10;;;8.20;99.90;;;;;;5032913;28;20190;-46
2022/03/31 04:02:21;;;;;;;21.40;14.32;;;8.20;99.90;;;;;;5033440;28;20172;-46
2022/03/31 04:04:47;;;;;;;22.73;15.20;;;8.10;99.90;;;;;;5033177;28;20163;-46
2022/03/31 04:07:13;;;;;;;26.58;15.85;;;8.10;99.90;;;;;;5032825;28;20171;-46
2022/03/31 04:09:38;;;;;;;26.77;16.17;;;8.10;99.90;;;;;;5032705;28;20187;-46
2022/03/31 04:12:04;;;;;;;25.85;15.38;;;8.00;99.90;;;;;;5032403;28;20639;-46
2022/03/31 04:14:30;;;;;;;29.17;16.42;;;7.90;99.90;;;;;;5032695;28;20174;-46
2022/03/31 04:16:56;;;;;;;26.92;15.80;;;7.90;99.90;;;;;;5032592;28;20223;-46
2022/03/31 04:19:22;;;;;;;25.85;16.33;;;7.80;99.90;;;;;;5033047;28;20262;-46
2022/03/31 04:21:47;;;;;;;30.17;15.93;;;7.90;99.90;;;;;;5033093;28;20214;-46
2022/03/31 04:24:13;;;;;;;29.92;16.90;;;7.70;99.90;;;;;;5032410;28;20176;-46
2022/03/31 04:26:38;;;;;;;25.17;15.82;;;7.80;99.90;;;;;;5032512;28;20242;-46
2022/03/31 04:29:08;;;;;;;28.85;16.08;;;7.80;99.90;;;;;;5032560;28;20270;-46
2022/03/31 04:31:38;;;;;;;24.80;15.75;;;7.80;99.90;;;;;;5032662;28;20199;-46
2022/03/31 04:34:04;;;;;;;24.98;16.58;;;7.80;99.90;;;;;;5032534;28;20265;-46
2022/03/31 04:36:29;;;;;;;28.17;16.60;;;7.80;99.90;;;;;;5032381;28;20242;-46
2022/03/31 04:38:55;;;;;;;32.05;18.55;;;7.80;99.90;;;;;;5032055;28;20211;-45
2022/03/31 04:41:20;;;;;;;31.60;17.75;;;7.80;99.90;;;;;;5032832;28;20167;-45
2022/03/31 04:43:46;;;;;;;30.20;17.00;;;7.80;99.90;;;;;;5032143;28;20168;-45
2022/03/31 04:46:11;;;;;;;27.30;15.82;;;7.90;99.90;;;;;;5031978;28;20175;-46
2022/03/31 04:48:37;;;;;;;24.83;17.40;;;7.80;99.90;;;;;;5031494;28;20182;-46
2022/03/31 04:51:03;;;;;;;27.95;16.20;;;7.80;99.90;;;;;;5032058;28;20246;-46
2022/03/31 04:53:28;;;;;;;28.17;16.85;;;7.80;99.90;;;;;;5032291;28;20175;-46
2022/03/31 04:55:54;;;;;;;29.30;17.83;;;7.80;99.90;;;;;;5032298;28;20178;-46
2022/03/31 04:58:19;;;;;;;25.20;16.05;;;7.80;99.90;;;;;;5032177;28;20666;-46
2022/03/31 05:00:45;;;;;;;22.90;16.08;;;7.90;99.90;;;;;;5032255;28;20175;-46
2022/03/31 05:03:10;;;;;;;27.85;16.27;;;7.80;99.90;;;;;;5038725;28;20171;-46
2022/03/31 05:05:36;;;;;;;28.48;16.17;;;7.80;99.90;;;;;;5038400;28;20171;-46
2022/03/31 05:08:02;;;;;;;34.60;20.77;;;7.80;99.90;;;;;;5038391;28;20174;-46
2022/03/31 05:10:28;;;;;;;40.20;22.30;;;7.80;99.90;;;;;;5038608;28;20274;-46
2022/03/31 05:12:53;;;;;;;28.70;17.63;;;7.80;99.90;;;;;;5038396;28;20227;-46
2022/03/31 05:15:19;;;;;;;32.90;17.05;;;7.80;99.90;;;;;;5038747;28;20167;-47
2022/03/31 05:17:45;;;;;;;38.08;23.98;;;7.80;99.90;;;;;;5038548;28;20222;-47
2022/03/31 05:20:12;;;;;;;33.17;22.98;;;7.80;99.90;;;;;;5038677;28;20178;-46
2022/03/31 05:22:39;;;;;;;28.50;17.55;;;7.90;99.90;;;;;;5038440;28;20168;-47
2022/03/31 05:25:07;;;;;;;27.10;19.27;;;7.90;99.90;;;;;;5038550;28;20163;-46
2022/03/31 05:27:45;;;;;;;26.85;16.77;;;7.90;99.90;;;;;;5038409;28;20198;-46
2022/03/31 05:30:13;;;;;;;26.15;15.88;;;7.90;99.90;;;;;;5038626;28;20175;-47
2022/03/31 05:32:38;;;;;;;27.75;17.60;;;7.80;99.90;;;;;;5038418;28;20163;-47
2022/03/31 05:35:06;;;;;;;30.40;17.17;;;7.90;99.90;;;;;;5038308;28;20171;-47
2022/03/31 05:37:33;;;;;;;26.50;17.60;;;7.80;99.90;;;;;;5053430;28;20195;-46
2022/03/31 05:40:00;;;;;;;31.02;17.52;;;7.80;99.90;;;;;;5036765;28;20199;-47
2022/03/31 05:42:26;;;;;;;29.75;17.30;;;7.90;99.90;;;;;;5038532;28;20173;-47
2022/03/31 05:44:52;;;;;;;31.52;18.10;;;7.90;99.90;;;;;;5038373;28;20536;-46
2022/03/31 05:47:17;;;;;;;33.47;18.20;;;7.90;99.90;;;;;;5038518;28;20223;-47
2022/03/31 05:49:43;;;;;;;26.85;17.17;;;7.90;99.90;;;;;;5038339;28;20258;-46
2022/03/31 05:52:08;;;;;;;30.20;17.30;;;7.90;99.90;;;;;;5038113;28;20201;-46
2022/03/31 05:54:34;;;;;;;27.02;16.15;;;7.90;99.90;;;;;;5038361;28;20182;-47
2022/03/31 05:56:59;;;;;;;29.20;18.45;;;7.80;99.90;;;;;;5038031;28;20219;-47
2022/03/31 05:59:25;;;;;;;24.60;16.25;;;7.90;99.90;;;;;;5038003;28;20254;-47
2022/03/31 06:01:51;;;;;;;29.08;17.85;;;7.80;99.90;;;;;;5038363;28;20199;-46
2022/03/31 06:04:20;;;;;;;35.83;20.17;;;7.80;99.90;;;;;;5038046;28;20598;-46
2022/03/31 06:06:47;;;;;;;35.92;23.50;;;7.80;99.90;;;;;;5038322;28;20175;-47
2022/03/31 06:09:14;;;;;;;37.42;21.73;;;7.90;99.90;;;;;;5037971;28;20221;-47
2022/03/31 06:11:40;;;;;;;34.35;19.58;;;8.00;99.90;;;;;;5038043;28;20164;-46
2022/03/31 06:14:06;;;;;;;50.85;27.08;;;8.00;99.90;;;;;;5034351;28;20164;-46
2022/03/31 06:16:32;;;;;;;30.73;18.55;;;8.00;99.90;;;;;;5035142;28;20170;-47
2022/03/31 06:18:57;;;;;;;35.80;23.50;;;7.90;99.90;;;;;;5034843;28;20207;-47
2022/03/31 06:21:23;;;;;;;35.03;23.20;;;8.00;99.90;;;;;;5034898;28;20226;-47
2022/03/31 06:23:48;;;;;;;38.17;26.25;;;8.20;99.90;;;;;;5035301;28;20694;-47
2022/03/31 06:26:14;;;;;;;42.30;26.73;;;8.00;99.90;;;;;;5034751;28;20254;-47
2022/03/31 06:28:40;;;;;;;33.63;22.42;;;8.10;99.90;;;;;;5034632;28;20646;-47
2022/03/31 06:31:05;;;;;;;24.38;15.65;;;8.10;99.90;;;;;;5034641;28;20160;-47
2022/03/31 06:33:31;;;;;;;27.63;17.42;;;7.90;99.90;;;;;;5034558;28;20556;-46
2022/03/31 06:35:56;;;;;;;23.98;16.10;;;7.90;99.90;;;;;;5034487;28;20164;-46
2022/03/31 06:38:22;;;;;;;25.33;19.77;;;8.00;99.90;;;;;;5034500;28;20211;-46
2022/03/31 06:43:33;;;;;;;28.13;18.98;;;8.20;99.90;;;;;;5034469;28;20221;-46
2022/03/31 06:45:59;;;;;;;25.95;17.73;;;8.20;99.90;;;;;;5034207;28;20166;-47
2022/03/31 06:48:26;;;;;;;27.45;16.63;;;8.20;99.90;;;;;;5034557;28;20171;-46
2022/03/31 06:50:52;;;;;;;27.10;18.08;;;8.20;99.90;;;;;;5034783;28;20176;-47
2022/03/31 06:53:18;;;;;;;25.00;15.65;;;8.30;99.90;;;;;;5034508;28;20687;-46
2022/03/31 06:55:45;;;;;;;33.67;21.42;;;8.40;99.90;;;;;;5034123;28;20642;-46
2022/03/31 06:58:10;;;;;;;50.22;26.40;;;8.50;99.90;;;;;;5033977;28;20288;-46
2022/03/31 07:00:36;;;;;;;30.58;19.88;;;8.50;99.90;;;;;;5034062;28;20199;-47
2022/03/31 07:03:02;;;;;;;24.98;15.77;;;8.50;99.90;;;;;;5034078;28;20246;-46
2022/03/31 07:05:27;;;;;;;23.77;15.18;;;8.40;99.90;;;;;;5033921;28;20631;-47
2022/03/31 07:07:53;;;;;;;25.05;17.20;;;8.30;99.90;;;;;;5034178;28;20273;-47
2022/03/31 07:10:19;;;;;;;26.63;16.90;;;8.10;99.90;;;;;;5034124;28;20723;-47
2022/03/31 07:12:44;;;;;;;25.10;17.60;;;8.30;99.90;;;;;;5033809;28;20171;-47
2022/03/31 07:15:10;;;;;;;27.55;19.98;;;8.50;99.90;;;;;;5033818;28;20523;-47
2022/03/31 07:17:37;;;;;;;26.50;15.30;;;8.60;99.90;;;;;;5033542;28;20199;-46
2022/03/31 07:20:04;;;;;;;24.38;16.75;;;8.60;99.90;;;;;;5033722;28;20256;-47
2022/03/31 07:22:30;;;;;;;34.60;23.48;;;8.70;99.90;;;;;;5033901;28;20167;-47
2022/03/31 07:24:55;;;;;;;23.42;16.17;;;8.80;99.90;;;;;;5033378;28;20167;-47
2022/03/31 07:27:21;;;;;;;22.48;14.82;;;8.70;99.90;;;;;;5033721;28;20532;-47
2022/03/31 07:29:47;;;;;;;28.60;20.30;;;8.70;99.90;;;;;;5032247;28;20220;-47
2022/03/31 07:32:12;;;;;;;63.17;35.85;;;8.90;99.90;;;;;;5033731;28;20186;-47
2022/03/31 07:34:38;;;;;;;24.23;15.57;;;8.80;99.90;;;;;;5033248;28;20171;-47
2022/03/31 07:37:05;;;;;;;29.15;17.95;;;8.60;99.90;;;;;;5033246;28;20297;-47
2022/03/31 07:39:31;;;;;;;22.20;14.50;;;8.70;99.90;;;;;;5033518;28;20202;-47
2022/03/31 07:41:56;;;;;;;21.02;14.60;;;8.80;99.90;;;;;;5033584;28;20237;-47
2022/03/31 07:44:22;;;;;;;20.40;14.13;;;8.70;99.90;;;;;;5033285;28;20175;-47
2022/03/31 07:46:51;;;;;;;22.35;13.32;;;8.80;99.90;;;;;;5033344;28;20215;-47
2022/03/31 07:49:17;;;;;;;24.85;13.85;;;8.80;99.90;;;;;;5033395;28;20168;-47
2022/03/31 07:51:43;;;;;;;19.73;13.15;;;8.80;99.90;;;;;;5031865;28;20233;-46
2022/03/31 07:54:08;;;;;;;21.02;12.60;;;8.90;99.90;;;;;;5032979;28;20202;-47
2022/03/31 07:56:34;;;;;;;15.60;12.20;;;9.00;99.90;;;;;;5032997;28;20246;-46
2022/03/31 07:58:59;;;;;;;19.17;12.93;;;9.00;99.90;;;;;;5032869;28;20253;-46
2022/03/31 08:01:25;;;;;;;21.40;13.13;;;9.10;99.90;;;;;;5032889;28;20179;-46
2022/03/31 08:03:52;;;;;;;19.90;13.40;;;9.20;99.90;;;;;;5033011;28;20171;-47
2022/03/31 08:06:19;;;;;;;18.33;12.77;;;9.10;99.90;;;;;;5033292;28;20183;-46
2022/03/31 08:08:44;;;;;;;20.27;12.65;;;9.20;99.90;;;;;;5032754;28;20619;-47
2022/03/31 08:11:10;;;;;;;17.20;12.60;;;9.20;99.90;;;;;;5032766;28;20191;-47
2022/03/31 08:13:36;;;;;;;16.95;11.80;;;9.20;99.90;;;;;;5032693;28;20262;-47
2022/03/31 08:16:01;;;;;;;19.35;12.27;;;9.20;99.90;;;;;;5032890;28;20174;-47
2022/03/31 08:18:31;;;;;;;15.70;11.95;;;9.30;99.90;;;;;;5032815;28;20215;-46
2022/03/31 08:20:57;;;;;;;16.77;12.13;;;9.30;99.90;;;;;;5032537;28;20519;-47
2022/03/31 08:23:23;;;;;;;17.83;11.95;;;9.40;99.90;;;;;;5032539;28;20182;-46
2022/03/31 08:25:49;;;;;;;21.70;13.48;;;9.30;99.90;;;;;;5032820;28;20164;-46
2022/03/31 08:28:15;;;;;;;19.77;12.57;;;9.30;99.90;;;;;;5032754;28;20195;-46
2022/03/31 08:30:40;;;;;;;19.90;13.32;;;9.40;99.90;;;;;;5032407;28;20163;-46
2022/03/31 08:33:06;;;;;;;19.13;12.65;;;9.40;99.90;;;;;;5032409;28;20175;-47
2022/03/31 08:35:31;;;;;;;21.67;13.15;;;9.20;99.90;;;;;;5032164;28;20164;-46
2022/03/31 08:37:57;;;;;;;20.05;13.05;;;9.20;99.90;;;;;;5031976;28;20552;-46
2022/03/31 08:40:22;;;;;;;21.98;14.00;;;9.20;99.90;;;;;;5032298;28;20205;-46
2022/03/31 08:42:48;;;;;;;18.17;13.35;;;9.20;99.90;;;;;;5032775;28;20178;-46
2022/03/31 08:45:17;;;;;;;24.63;13.77;;;9.20;99.90;;;;;;5032248;28;20164;-46
2022/03/31 08:47:45;;;;;;;17.75;13.15;;;9.10;99.90;;;;;;5032094;28;20222;-46
2022/03/31 08:50:11;;;;;;;17.92;13.73;;;8.80;99.90;;;;;;5032406;28;20171;-46
2022/03/31 08:52:37;;;;;;;19.10;13.82;;;8.90;99.90;;;;;;5032416;28;20179;-47
2022/03/31 08:55:04;;;;;;;19.70;13.85;;;8.90;99.90;;;;;;5032103;28;20255;-46
2022/03/31 08:57:41;;;;;;;23.80;13.60;;;8.90;99.90;;;;;;5032267;28;20206;-46
2022/03/31 09:00:08;;;;;;;19.10;13.00;;;8.90;99.90;;;;;;5032349;28;20217;-47
2022/03/31 09:02:34;;;;;;;19.13;13.23;;;8.80;99.90;;;;;;5032068;28;20258;-46
2022/03/31 09:05:10;;;;;;;17.38;12.68;;;8.80;99.90;;;;;;5032008;28;20254;-46
2022/03/31 09:07:56;;;;;;;17.23;12.57;;;8.70;99.90;;;;;;5032178;28;20178;-47
2022/03/31 09:10:36;;;;;;;19.30;12.65;;;8.60;99.90;;;;;;5032481;28;20580;-46
2022/03/31 09:13:04;;;;;;;20.02;12.68;;;8.60;99.90;;;;;;5032013;28;20168;-46
2022/03/31 09:15:30;;;;;;;19.73;13.18;;;8.60;99.90;;;;;;5032224;28;20271;-46
2022/03/31 09:17:57;;;;;;;18.25;12.25;;;8.70;99.90;;;;;;5031751;28;20297;-46
2022/03/31 09:20:34;;;;;;;18.50;13.07;;;8.50;99.90;;;;;;5031875;28;20167;-46
2022/03/31 09:22:59;;;;;;;26.02;17.55;;;8.70;99.90;;;;;;5031957;28;20194;-46
2022/03/31 09:25:27;;;;;;;20.75;15.15;;;8.70;99.90;;;;;;5031846;28;20203;-46
2022/03/31 09:27:53;;;;;;;21.48;13.48;;;8.80;99.90;;;;;;5032077;28;20547;-46
2022/03/31 09:30:19;;;;;;;20.55;13.57;;;8.90;99.90;;;;;;5032320;28;20225;-46
2022/03/31 09:32:51;;;;;;;23.23;16.75;;;8.90;99.90;;;;;;5031884;28;20240;-46
2022/03/31 09:35:24;;;;;;;20.88;14.00;;;8.70;99.90;;;;;;5032210;28;20165;-47
2022/03/31 09:37:55;;;;;;;21.17;14.20;;;8.70;99.90;;;;;;5032017;28;20199;-46
2022/03/31 09:40:21;;;;;;;21.52;14.02;;;8.70;99.90;;;;;;5031966;28;20205;-46
2022/03/31 09:42:59;;;;;;;19.42;12.32;;;8.70;99.90;;;;;;5031679;28;20175;-46
2022/03/31 09:45:37;;;;;;;20.98;12.65;;;8.80;99.90;;;;;;5031755;28;20258;-46
2022/03/31 09:48:02;;;;;;;18.40;11.77;;;8.80;99.90;;;;;;5031861;28;20219;-46
2022/03/31 09:50:36;;;;;;;18.77;12.48;;;8.60;99.90;;;;;;5035792;28;20167;-47
2022/03/31 09:53:03;;;;;;;18.50;12.45;;;8.80;99.90;;;;;;5035771;28;20176;-47
2022/03/31 09:55:29;;;;;;;18.08;13.02;;;8.90;99.90;;;;;;5035711;28;20191;-47
2022/03/31 09:57:56;;;;;;;25.00;13.40;;;9.00;99.90;;;;;;5036189;28;20199;-47
2022/03/31 10:00:23;;;;;;;17.50;11.95;;;8.90;99.90;;;;;;5035542;28;20207;-47
2022/03/31 10:02:50;;;;;;;16.58;11.90;;;8.80;99.90;;;;;;5035496;28;20178;-47
2022/03/31 10:05:18;;;;;;;16.85;11.68;;;8.80;99.90;;;;;;5035320;28;20182;-47
2022/03/31 10:07:45;;;;;;;18.70;11.63;;;8.90;99.90;;;;;;5035320;28;20514;-47
2022/03/31 10:10:11;;;;;;;17.80;11.82;;;8.90;99.90;;;;;;5034988;28;20639;-47
2022/03/31 10:12:43;;;;;;;20.02;12.73;;;9.00;99.90;;;;;;5035035;28;20216;-47
2022/03/31 10:15:14;;;;;;;20.20;12.55;;;9.00;99.90;;;;;;5034999;28;20183;-46
2022/03/31 10:17:41;;;;;;;15.77;11.88;;;9.00;99.90;;;;;;5034800;28;20195;-47
2022/03/31 10:20:11;;;;;;;17.83;12.15;;;9.00;99.90;;;;;;5033511;28;20310;-47
2022/03/31 10:25:21;;;;;;;16.23;12.43;;;9.10;99.90;;;;;;5035109;28;20170;-47
2022/03/31 10:27:49;;;;;;;33.03;26.15;;;9.30;99.90;;;;;;5034712;28;20540;-47
2022/03/31 10:30:17;;;;;;;27.73;19.77;;;9.20;99.90;;;;;;5034899;28;20258;-47
2022/03/31 10:32:55;;;;;;;39.22;23.98;;;9.30;99.90;;;;;;5034826;28;20175;-47
2022/03/31 10:35:25;;;;;;;122.07;70.85;;;9.30;99.90;;;;;;5034939;28;20163;-47
2022/03/31 10:37:51;;;;;;;21.48;15.13;;;9.20;99.90;;;;;;5034990;28;20203;-47
2022/03/31 10:40:35;;;;;;;45.58;27.27;;;9.20;99.90;;;;;;5034764;28;20191;-47
2022/03/31 10:43:02;;;;;;;19.55;13.77;;;9.30;99.90;;;;;;5034464;28;20172;-47
2022/03/31 10:45:39;;;;;;;17.17;11.68;;;9.30;99.90;;;;;;5034488;28;20180;-47
2022/03/31 10:48:16;;;;;;;18.92;12.55;;;9.10;99.90;;;;;;5034167;28;20218;-47
2022/03/31 10:50:44;;;;;;;24.27;14.98;;;8.90;99.90;;;;;;5034536;28;20198;-47
2022/03/31 10:53:09;;;;;;;33.85;25.85;;;9.00;99.90;;;;;;5034242;28;20214;-47
2022/03/31 10:55:38;;;;;;;18.50;13.75;;;9.00;99.90;;;;;;5034274;28;20163;-47
2022/03/31 10:58:05;;;;;;;23.75;17.40;;;9.10;99.90;;;;;;5034050;28;20574;-47
2022/03/31 11:00:30;;;;;;;28.42;18.52;;;9.10;99.90;;;;;;5033910;28;20237;-47
2022/03/31 11:02:56;;;;;;;14.57;11.05;;;9.20;99.90;;;;;;5034117;28;20171;-47
2022/03/31 11:05:22;;;;;;;14.63;10.13;;;9.00;99.90;;;;;;5034175;28;20713;-47
2022/03/31 11:07:48;;;;;;;16.92;11.35;;;9.10;99.90;;;;;;5034495;28;20206;-47
2022/03/31 11:10:17;;;;;;;16.08;10.55;;;9.10;99.90;;;;;;5033831;28;20171;-47
2022/03/31 11:12:43;;;;;;;15.48;11.77;;;9.10;99.90;;;;;;5033941;28;20193;-47
2022/03/31 11:15:16;;;;;;;17.52;11.90;;;8.90;99.90;;;;;;5033920;28;20167;-47
2022/03/31 11:17:42;;;;;;;20.77;12.68;;;8.80;99.90;;;;;;5033769;28;20202;-47
2022/03/31 11:20:16;;;;;;;26.15;16.77;;;9.00;99.90;;;;;;5033999;28;20198;-47
2022/03/31 11:22:50;;;;;;;18.00;14.10;;;9.00;99.90;;;;;;5032358;28;20188;-47
2022/03/31 11:25:18;;;;;;;49.92;34.65;;;9.10;99.90;;;;;;5033655;28;20650;-47
2022/03/31 11:27:44;;;;;;;21.88;15.00;;;9.10;99.90;;;;;;5033866;28;20167;-47
2022/03/31 11:30:16;;;;;;;19.27;11.95;;;9.00;99.90;;;;;;5033847;28;20171;-47
2022/03/31 11:32:42;;;;;;;18.33;12.45;;;9.00;99.90;;;;;;5033474;28;20647;-47
2022/03/31 11:35:17;;;;;;;17.10;12.13;;;8.90;99.90;;;;;;5033676;28;20225;-47
2022/03/31 11:37:46;;;;;;;15.90;11.85;;;8.90;99.90;;;;;;5033555;28;20205;-47
2022/03/31 11:40:20;;;;;;;16.35;11.98;;;8.90;99.90;;;;;;5033375;28;20167;-47
2022/03/31 11:42:47;;;;;;;21.42;12.02;;;9.00;99.90;;;;;;5032061;28;20167;-47
2022/03/31 11:45:31;;;;;;;18.27;11.45;;;8.90;99.90;;;;;;5033543;28;20167;-47
2022/03/31 11:47:59;;;;;;;18.90;12.68;;;8.80;99.90;;;;;;5033037;28;20214;-47
2022/03/31 11:50:26;;;;;;;15.90;11.48;;;8.70;99.90;;;;;;5033184;28;20668;-47
2022/03/31 11:52:52;;;;;;;18.55;11.20;;;8.70;99.90;;;;;;5033355;28;20218;-47
2022/03/31 11:55:20;;;;;;;18.63;11.55;;;8.60;99.90;;;;;;5033383;28;20588;-47
2022/03/31 11:57:51;;;;;;;16.95;10.93;;;8.50;99.90;;;;;;5033076;28;20206;-47
2022/03/31 12:00:17;;;;;;;19.60;11.02;;;8.40;99.90;;;;;;5033355;28;20170;-47
2022/03/31 12:02:57;;;;;;;17.05;12.30;;;8.50;99.90;;;;;;5032737;28;20167;-47
2022/03/31 12:05:23;;;;;;;17.38;12.35;;;8.60;99.90;;;;;;5032882;28;20168;-47
2022/03/31 12:07:50;;;;;;;17.42;12.25;;;8.60;99.90;;;;;;5048442;28;20507;-47
2022/03/31 12:10:16;;;;;;;16.70;11.80;;;8.60;99.90;;;;;;5032544;28;20657;-47
2022/03/31 12:12:51;;;;;;;19.20;12.98;;;8.50;99.90;;;;;;5032185;28;20197;-47
2022/03/31 12:15:22;;;;;;;19.60;13.25;;;8.50;99.90;;;;;;5033053;28;20246;-47
2022/03/31 12:18:03;;;;;;;18.55;12.45;;;8.60;99.90;;;;;;5033109;28;20199;-47
2022/03/31 12:20:29;;;;;;;19.80;12.00;;;8.50;99.90;;;;;;5032885;28;20210;-47
2022/03/31 12:22:55;;;;;;;15.85;10.80;;;8.50;99.90;;;;;;5032822;28;20182;-47
2022/03/31 12:25:29;;;;;;;13.77;9.55;;;8.60;99.90;;;;;;5032886;28;20167;-47
2022/03/31 12:27:58;;;;;;;12.10;8.25;;;8.50;99.90;;;;;;5032486;28;20538;-47
2022/03/31 12:30:24;;;;;;;11.27;9.15;;;8.50;99.90;;;;;;5032745;28;20229;-47
2022/03/31 12:32:49;;;;;;;9.88;8.25;;;8.30;99.90;;;;;;5032981;28;20179;-47
2022/03/31 12:35:15;;;;;;;8.48;7.53;;;8.20;99.90;;;;;;5032576;28;20313;-47
2022/03/31 12:37:48;;;;;;;8.23;7.43;;;8.20;99.90;;;;;;5032163;28;20736;-47
2022/03/31 12:40:16;;;;;;;8.98;6.95;;;8.10;99.90;;;;;;5032284;28;20186;-47
2022/03/31 12:42:55;;;;;;;8.90;7.25;;;8.00;99.90;;;;;;5032520;28;20175;-47
2022/03/31 12:45:21;;;;;;;9.10;6.53;;;9.10;99.90;;;;;;5032599;28;20159;-47